sensor_id;sensor_type;location;lat;lon;timestamp;P1;durP1;ratioP1;P2;durP2;ratioP2
23768;SDS011;12064;50.890;5.424;2024-01-30T00:04:39;1.70;;;1.60;;
23768;SDS011;12064;50.890;5.424;2024-01-30T00:13:30;2.43;;;1.70;;
23768;SDS011;12064;50.890;5.424;2024-01-30T00:22:20;1.45;;;1.35;;
23768;SDS011;12064;50.890;5.424;2024-01-30T00:31:11;2.08;;;1.60;;
23768;SDS011;12064;50.890;5.424;2024-01-30T00:40:02;2.33;;;1.30;;
23768;SDS011;12064;50.890;5.424;2024-01-30T00:48:53;1.75;;;1.50;;
23768;SDS011;12064;50.890;5.424;2024-01-30T00:57:45;1.58;;;1.40;;
23768;SDS011;12064;50.890;5.424;2024-01-30T01:06:37;1.85;;;1.42;;
23768;SDS011;12064;50.890;5.424;2024-01-30T01:15:27;1.60;;;1.50;;
23768;SDS011;12064;50.890;5.424;2024-01-30T01:24:18;2.22;;;1.58;;
23768;SDS011;12064;50.890;5.424;2024-01-30T01:33:09;1.70;;;1.60;;
23768;SDS011;12064;50.890;5.424;2024-01-30T01:42:00;2.45;;;1.80;;
23768;SDS011;12064;50.890;5.424;2024-01-30T01:50:51;1.60;;;1.50;;
23768;SDS011;12064;50.890;5.424;2024-01-30T01:59:42;1.58;;;1.48;;
23768;SDS011;12064;50.890;5.424;2024-01-30T02:08:33;2.25;;;1.65;;
23768;SDS011;12064;50.890;5.424;2024-01-30T02:17:24;1.40;;;1.30;;
23768;SDS011;12064;50.890;5.424;2024-01-30T02:26:15;1.65;;;1.40;;
23768;SDS011;12064;50.890;5.424;2024-01-30T02:35:06;2.17;;;1.45;;
23768;SDS011;12064;50.890;5.424;2024-01-30T02:43:57;1.75;;;1.55;;
23768;SDS011;12064;50.890;5.424;2024-01-30T02:52:47;1.50;;;1.40;;
23768;SDS011;12064;50.890;5.424;2024-01-30T03:01:44;1.50;;;1.40;;
23768;SDS011;12064;50.890;5.424;2024-01-30T03:10:38;1.73;;;1.40;;
23768;SDS011;12064;50.890;5.424;2024-01-30T03:19:28;1.52;;;1.35;;
23768;SDS011;12064;50.890;5.424;2024-01-30T03:28:19;2.13;;;1.20;;
23768;SDS011;12064;50.890;5.424;2024-01-30T03:37:10;1.40;;;1.30;;
23768;SDS011;12064;50.890;5.424;2024-01-30T03:46:01;1.48;;;1.38;;
23768;SDS011;12064;50.890;5.424;2024-01-30T03:54:52;1.42;;;1.33;;
23768;SDS011;12064;50.890;5.424;2024-01-30T04:03:43;1.80;;;1.40;;
23768;SDS011;12064;50.890;5.424;2024-01-30T04:12:34;1.17;;;1.13;;
23768;SDS011;12064;50.890;5.424;2024-01-30T04:21:28;1.40;;;1.30;;
23768;SDS011;12064;50.890;5.424;2024-01-30T04:30:18;1.27;;;1.20;;
23768;SDS011;12064;50.890;5.424;2024-01-30T04:39:09;1.90;;;1.47;;
23768;SDS011;12064;50.890;5.424;2024-01-30T04:48:01;1.30;;;1.20;;
23768;SDS011;12064;50.890;5.424;2024-01-30T04:56:52;1.25;;;1.15;;
23768;SDS011;12064;50.890;5.424;2024-01-30T05:05:43;1.48;;;1.33;;
23768;SDS011;12064;50.890;5.424;2024-01-30T05:14:34;1.10;;;1.10;;
23768;SDS011;12064;50.890;5.424;2024-01-30T05:23:24;1.87;;;1.50;;
23768;SDS011;12064;50.890;5.424;2024-01-30T05:32:15;2.70;;;1.50;;
23768;SDS011;12064;50.890;5.424;2024-01-30T05:41:06;1.60;;;1.50;;
23768;SDS011;12064;50.890;5.424;2024-01-30T05:49:56;1.70;;;1.50;;
23768;SDS011;12064;50.890;5.424;2024-01-30T05:58:47;1.80;;;1.60;;
23768;SDS011;12064;50.890;5.424;2024-01-30T06:07:38;1.67;;;1.58;;
23768;SDS011;12064;50.890;5.424;2024-01-30T06:16:28;1.95;;;1.63;;
23768;SDS011;12064;50.890;5.424;2024-01-30T06:25:19;2.42;;;1.88;;
23768;SDS011;12064;50.890;5.424;2024-01-30T06:34:10;1.77;;;1.65;;
23768;SDS011;12064;50.890;5.424;2024-01-30T06:43:02;3.13;;;1.95;;
23768;SDS011;12064;50.890;5.424;2024-01-30T06:51:52;1.85;;;1.60;;
23768;SDS011;12064;50.890;5.424;2024-01-30T07:00:43;2.73;;;1.90;;
23768;SDS011;12064;50.890;5.424;2024-01-30T07:09:33;1.93;;;1.60;;
23768;SDS011;12064;50.890;5.424;2024-01-30T07:18:26;1.83;;;1.58;;
23768;SDS011;12064;50.890;5.424;2024-01-30T07:27:16;1.93;;;1.77;;
23768;SDS011;12064;50.890;5.424;2024-01-30T07:36:08;2.67;;;1.63;;
23768;SDS011;12064;50.890;5.424;2024-01-30T07:44:59;1.80;;;1.70;;
23768;SDS011;12064;50.890;5.424;2024-01-30T07:53:53;1.70;;;1.60;;
23768;SDS011;12064;50.890;5.424;2024-01-30T08:02:44;1.63;;;1.53;;
23768;SDS011;12064;50.890;5.424;2024-01-30T08:11:34;1.70;;;1.60;;
23768;SDS011;12064;50.890;5.424;2024-01-30T08:20:25;1.75;;;1.52;;
23768;SDS011;12064;50.890;5.424;2024-01-30T08:29:16;1.40;;;1.30;;
23768;SDS011;12064;50.890;5.424;2024-01-30T08:38:07;1.92;;;1.73;;
23768;SDS011;12064;50.890;5.424;2024-01-30T08:46:57;1.65;;;1.52;;
23768;SDS011;12064;50.890;5.424;2024-01-30T08:55:48;1.67;;;1.40;;
23768;SDS011;12064;50.890;5.424;2024-01-30T09:04:39;1.70;;;1.60;;
23768;SDS011;12064;50.890;5.424;2024-01-30T09:13:29;1.60;;;1.40;;
23768;SDS011;12064;50.890;5.424;2024-01-30T09:22:20;1.60;;;1.50;;
23768;SDS011;12064;50.890;5.424;2024-01-30T09:31:11;1.50;;;1.40;;
23768;SDS011;12064;50.890;5.424;2024-01-30T09:40:02;1.40;;;1.30;;
23768;SDS011;12064;50.890;5.424;2024-01-30T09:48:55;1.85;;;1.67;;
23768;SDS011;12064;50.890;5.424;2024-01-30T09:57:47;1.50;;;1.40;;
23768;SDS011;12064;50.890;5.424;2024-01-30T10:06:38;1.42;;;1.33;;
23768;SDS011;12064;50.890;5.424;2024-01-30T10:15:30;1.52;;;1.42;;
23768;SDS011;12064;50.890;5.424;2024-01-30T10:24:24;1.50;;;1.40;;
23768;SDS011;12064;50.890;5.424;2024-01-30T10:33:15;1.92;;;1.58;;
23768;SDS011;12064;50.890;5.424;2024-01-30T10:42:06;1.50;;;1.40;;
23768;SDS011;12064;50.890;5.424;2024-01-30T10:51:02;1.70;;;1.60;;
23768;SDS011;12064;50.890;5.424;2024-01-30T10:59:55;1.42;;;1.33;;
23768;SDS011;12064;50.890;5.424;2024-01-30T11:08:59;1.50;;;1.40;;
23768;SDS011;12064;50.890;5.424;2024-01-30T11:18:00;1.83;;;1.40;;
23768;SDS011;12064;50.890;5.424;2024-01-30T11:26:58;1.52;;;1.42;;
23768;SDS011;12064;50.890;5.424;2024-01-30T11:44:40;2.70;;;1.40;;
23768;SDS011;12064;50.890;5.424;2024-01-30T11:53:32;1.60;;;1.47;;
23768;SDS011;12064;50.890;5.424;2024-01-30T12:02:22;1.40;;;1.30;;
23768;SDS011;12064;50.890;5.424;2024-01-30T12:11:13;1.67;;;1.40;;
23768;SDS011;12064;50.890;5.424;2024-01-30T12:29:03;1.35;;;1.20;;
23768;SDS011;12064;50.890;5.424;2024-01-30T12:37:54;1.40;;;1.30;;
23768;SDS011;12064;50.890;5.424;2024-01-30T12:46:46;1.55;;;1.45;;
23768;SDS011;12064;50.890;5.424;2024-01-30T12:55:37;1.35;;;1.25;;
23768;SDS011;12064;50.890;5.424;2024-01-30T13:04:34;1.35;;;1.25;;
23768;SDS011;12064;50.890;5.424;2024-01-30T13:13:25;1.40;;;1.30;;
23768;SDS011;12064;50.890;5.424;2024-01-30T13:22:16;1.30;;;1.20;;
23768;SDS011;12064;50.890;5.424;2024-01-30T13:31:06;1.67;;;1.20;;
23768;SDS011;12064;50.890;5.424;2024-01-30T13:39:57;1.10;;;1.00;;
23768;SDS011;12064;50.890;5.424;2024-01-30T13:48:48;1.23;;;1.17;;
23768;SDS011;12064;50.890;5.424;2024-01-30T13:57:40;1.40;;;1.30;;
23768;SDS011;12064;50.890;5.424;2024-01-30T14:06:30;1.27;;;1.20;;
23768;SDS011;12064;50.890;5.424;2024-01-30T14:15:21;1.30;;;1.20;;
23768;SDS011;12064;50.890;5.424;2024-01-30T14:24:12;1.05;;;1.05;;
23768;SDS011;12064;50.890;5.424;2024-01-30T14:33:03;0.90;;;0.90;;
23768;SDS011;12064;50.890;5.424;2024-01-30T14:41:53;1.35;;;1.20;;
23768;SDS011;12064;50.890;5.424;2024-01-30T14:50:44;0.90;;;0.90;;
23768;SDS011;12064;50.890;5.424;2024-01-30T14:59:35;1.13;;;1.10;;
23768;SDS011;12064;50.890;5.424;2024-01-30T15:08:26;0.90;;;0.90;;
23768;SDS011;12064;50.890;5.424;2024-01-30T15:17:17;0.90;;;0.90;;
23768;SDS011;12064;50.890;5.424;2024-01-30T15:26:08;1.15;;;1.05;;
23768;SDS011;12064;50.890;5.424;2024-01-30T15:35:00;0.90;;;0.90;;
23768;SDS011;12064;50.890;5.424;2024-01-30T15:43:53;0.90;;;0.90;;
23768;SDS011;12064;50.890;5.424;2024-01-30T15:52:44;1.00;;;1.00;;
23768;SDS011;12064;50.890;5.424;2024-01-30T16:01:34;1.13;;;1.03;;
23768;SDS011;12064;50.890;5.424;2024-01-30T16:10:25;1.00;;;1.00;;
23768;SDS011;12064;50.890;5.424;2024-01-30T16:19:16;1.00;;;1.00;;
23768;SDS011;12064;50.890;5.424;2024-01-30T16:28:06;1.10;;;1.10;;
23768;SDS011;12064;50.890;5.424;2024-01-30T16:36:57;0.80;;;0.80;;
23768;SDS011;12064;50.890;5.424;2024-01-30T16:45:48;0.80;;;0.80;;
23768;SDS011;12064;50.890;5.424;2024-01-30T16:54:38;1.00;;;0.90;;
23768;SDS011;12064;50.890;5.424;2024-01-30T17:03:29;1.17;;;1.07;;
23768;SDS011;12064;50.890;5.424;2024-01-30T17:12:19;0.80;;;0.80;;
23768;SDS011;12064;50.890;5.424;2024-01-30T17:21:15;1.03;;;0.93;;
23768;SDS011;12064;50.890;5.424;2024-01-30T17:30:07;1.02;;;0.88;;
23768;SDS011;12064;50.890;5.424;2024-01-30T17:38:58;1.00;;;0.70;;
23768;SDS011;12064;50.890;5.424;2024-01-30T17:47:50;1.00;;;0.90;;
23768;SDS011;12064;50.890;5.424;2024-01-30T17:56:40;1.50;;;0.70;;
23768;SDS011;12064;50.890;5.424;2024-01-30T18:05:31;0.80;;;0.80;;
23768;SDS011;12064;50.890;5.424;2024-01-30T18:14:22;1.08;;;0.85;;
23768;SDS011;12064;50.890;5.424;2024-01-30T18:23:13;0.70;;;0.70;;
23768;SDS011;12064;50.890;5.424;2024-01-30T18:32:05;0.82;;;0.68;;
23768;SDS011;12064;50.890;5.424;2024-01-30T18:40:56;1.23;;;0.80;;
23768;SDS011;12064;50.890;5.424;2024-01-30T18:49:46;0.80;;;0.80;;
23768;SDS011;12064;50.890;5.424;2024-01-30T18:58:41;0.70;;;0.70;;
23768;SDS011;12064;50.890;5.424;2024-01-30T19:07:31;1.30;;;0.80;;
23768;SDS011;12064;50.890;5.424;2024-01-30T19:16:22;0.97;;;0.83;;
23768;SDS011;12064;50.890;5.424;2024-01-30T19:25:13;0.70;;;0.70;;
23768;SDS011;12064;50.890;5.424;2024-01-30T19:34:03;0.68;;;0.68;;
23768;SDS011;12064;50.890;5.424;2024-01-30T19:42:54;0.65;;;0.65;;
23768;SDS011;12064;50.890;5.424;2024-01-30T19:51:45;3.38;;;0.82;;
23768;SDS011;12064;50.890;5.424;2024-01-30T20:00:35;1.60;;;0.90;;
23768;SDS011;12064;50.890;5.424;2024-01-30T20:09:28;1.27;;;0.85;;
23768;SDS011;12064;50.890;5.424;2024-01-30T20:18:18;1.48;;;0.80;;
23768;SDS011;12064;50.890;5.424;2024-01-30T20:27:09;1.53;;;0.60;;
23768;SDS011;12064;50.890;5.424;2024-01-30T20:36:00;2.28;;;0.82;;
23768;SDS011;12064;50.890;5.424;2024-01-30T20:44:52;1.75;;;0.90;;
23768;SDS011;12064;50.890;5.424;2024-01-30T20:53:42;1.43;;;0.90;;
23768;SDS011;12064;50.890;5.424;2024-01-30T21:02:35;0.80;;;0.70;;
23768;SDS011;12064;50.890;5.424;2024-01-30T21:11:27;2.03;;;0.80;;
23768;SDS011;12064;50.890;5.424;2024-01-30T21:20:17;1.33;;;0.83;;
23768;SDS011;12064;50.890;5.424;2024-01-30T21:29:11;1.52;;;0.90;;
23768;SDS011;12064;50.890;5.424;2024-01-30T21:38:02;2.20;;;1.00;;
23768;SDS011;12064;50.890;5.424;2024-01-30T21:46:54;1.00;;;0.80;;
23768;SDS011;12064;50.890;5.424;2024-01-30T21:55:45;1.33;;;0.88;;
23768;SDS011;12064;50.890;5.424;2024-01-30T22:04:35;1.40;;;0.70;;
23768;SDS011;12064;50.890;5.424;2024-01-30T22:13:26;2.50;;;0.80;;
23768;SDS011;12064;50.890;5.424;2024-01-30T22:22:17;1.87;;;0.80;;
23768;SDS011;12064;50.890;5.424;2024-01-30T22:31:08;1.83;;;0.80;;
23768;SDS011;12064;50.890;5.424;2024-01-30T22:39:59;0.98;;;0.80;;
23768;SDS011;12064;50.890;5.424;2024-01-30T22:48:49;1.42;;;0.70;;
23768;SDS011;12064;50.890;5.424;2024-01-30T22:57:40;1.00;;;0.70;;
23768;SDS011;12064;50.890;5.424;2024-01-30T23:06:30;1.67;;;0.80;;
23768;SDS011;12064;50.890;5.424;2024-01-30T23:15:21;1.17;;;0.88;;
23768;SDS011;12064;50.890;5.424;2024-01-30T23:24:12;1.95;;;0.90;;
23768;SDS011;12064;50.890;5.424;2024-01-30T23:33:06;1.13;;;0.85;;
23768;SDS011;12064;50.890;5.424;2024-01-30T23:41:56;1.67;;;0.90;;
23768;SDS011;12064;50.890;5.424;2024-01-30T23:50:47;2.40;;;1.00;;
23768;SDS011;12064;50.890;5.424;2024-01-30T23:59:39;1.95;;;1.00;;
